sensor_id;sensor_type;location;lat;lon;timestamp;P1;durP1;ratioP1;P2;durP2;ratioP2
71360;SDS011;59166;48.908;1.870;2023-08-20T00:02:36;8.73;;;2.13;;
71360;SDS011;59166;48.908;1.870;2023-08-20T00:07:39;8.97;;;2.10;;
71360;SDS011;59166;48.908;1.870;2023-08-20T00:12:40;9.43;;;2.10;;
71360;SDS011;59166;48.908;1.870;2023-08-20T00:17:41;8.97;;;1.80;;
71360;SDS011;59166;48.908;1.870;2023-08-20T00:22:44;9.25;;;1.88;;
71360;SDS011;59166;48.908;1.870;2023-08-20T00:27:45;5.95;;;1.48;;
71360;SDS011;59166;48.908;1.870;2023-08-20T00:32:45;8.27;;;1.63;;
71360;SDS011;59166;48.908;1.870;2023-08-20T00:37:47;7.40;;;1.70;;
71360;SDS011;59166;48.908;1.870;2023-08-20T00:42:48;7.35;;;1.60;;
71360;SDS011;59166;48.908;1.870;2023-08-20T00:47:49;8.67;;;1.80;;
71360;SDS011;59166;48.908;1.870;2023-08-20T00:52:51;8.65;;;1.70;;
71360;SDS011;59166;48.908;1.870;2023-08-20T00:57:52;7.63;;;1.47;;
71360;SDS011;59166;48.908;1.870;2023-08-20T01:02:52;8.68;;;1.80;;
71360;SDS011;59166;48.908;1.870;2023-08-20T01:08:01;7.80;;;1.60;;
71360;SDS011;59166;48.908;1.870;2023-08-20T01:13:13;7.78;;;1.58;;
71360;SDS011;59166;48.908;1.870;2023-08-20T01:18:13;7.10;;;1.60;;
71360;SDS011;59166;48.908;1.870;2023-08-20T01:23:35;8.33;;;1.80;;
71360;SDS011;59166;48.908;1.870;2023-08-20T01:28:51;8.48;;;1.60;;
71360;SDS011;59166;48.908;1.870;2023-08-20T01:33:52;7.03;;;1.75;;
71360;SDS011;59166;48.908;1.870;2023-08-20T01:38:53;8.83;;;1.80;;
71360;SDS011;59166;48.908;1.870;2023-08-20T01:43:54;10.45;;;1.90;;
71360;SDS011;59166;48.908;1.870;2023-08-20T01:48:55;7.57;;;1.90;;
71360;SDS011;59166;48.908;1.870;2023-08-20T01:53:56;10.00;;;1.90;;
71360;SDS011;59166;48.908;1.870;2023-08-20T01:58:58;9.80;;;2.20;;
71360;SDS011;59166;48.908;1.870;2023-08-20T02:03:59;8.93;;;1.92;;
71360;SDS011;59166;48.908;1.870;2023-08-20T02:08:59;9.00;;;2.07;;
71360;SDS011;59166;48.908;1.870;2023-08-20T02:14:01;12.57;;;2.10;;
71360;SDS011;59166;48.908;1.870;2023-08-20T02:19:02;8.88;;;1.90;;
71360;SDS011;59166;48.908;1.870;2023-08-20T02:24:03;10.00;;;2.10;;
71360;SDS011;59166;48.908;1.870;2023-08-20T02:29:05;7.70;;;1.90;;
71360;SDS011;59166;48.908;1.870;2023-08-20T02:34:06;11.32;;;2.00;;
71360;SDS011;59166;48.908;1.870;2023-08-20T02:39:07;10.13;;;1.83;;
71360;SDS011;59166;48.908;1.870;2023-08-20T02:44:09;7.72;;;1.85;;
71360;SDS011;59166;48.908;1.870;2023-08-20T02:49:09;8.67;;;2.00;;
71360;SDS011;59166;48.908;1.870;2023-08-20T02:54:10;8.13;;;2.30;;
71360;SDS011;59166;48.908;1.870;2023-08-20T02:59:12;8.10;;;1.97;;
71360;SDS011;59166;48.908;1.870;2023-08-20T03:04:12;10.43;;;2.20;;
71360;SDS011;59166;48.908;1.870;2023-08-20T03:09:13;9.33;;;2.33;;
71360;SDS011;59166;48.908;1.870;2023-08-20T03:14:15;9.17;;;1.97;;
71360;SDS011;59166;48.908;1.870;2023-08-20T03:19:16;8.32;;;1.77;;
71360;SDS011;59166;48.908;1.870;2023-08-20T03:24:16;10.20;;;2.00;;
71360;SDS011;59166;48.908;1.870;2023-08-20T03:29:18;8.43;;;2.20;;
71360;SDS011;59166;48.908;1.870;2023-08-20T03:34:19;9.13;;;2.03;;
71360;SDS011;59166;48.908;1.870;2023-08-20T03:39:20;9.47;;;1.80;;
71360;SDS011;59166;48.908;1.870;2023-08-20T03:44:22;10.60;;;1.88;;
71360;SDS011;59166;48.908;1.870;2023-08-20T03:49:23;8.25;;;2.20;;
71360;SDS011;59166;48.908;1.870;2023-08-20T03:54:24;10.60;;;2.30;;
71360;SDS011;59166;48.908;1.870;2023-08-20T03:59:26;7.43;;;1.90;;
71360;SDS011;59166;48.908;1.870;2023-08-20T04:04:26;9.32;;;2.38;;
71360;SDS011;59166;48.908;1.870;2023-08-20T04:09:27;9.60;;;2.30;;
71360;SDS011;59166;48.908;1.870;2023-08-20T04:14:29;9.87;;;2.10;;
71360;SDS011;59166;48.908;1.870;2023-08-20T04:19:29;8.57;;;2.03;;
71360;SDS011;59166;48.908;1.870;2023-08-20T04:24:30;7.00;;;2.07;;
71360;SDS011;59166;48.908;1.870;2023-08-20T04:29:32;8.40;;;1.90;;
71360;SDS011;59166;48.908;1.870;2023-08-20T04:34:33;8.77;;;2.03;;
71360;SDS011;59166;48.908;1.870;2023-08-20T04:39:33;8.23;;;1.88;;
71360;SDS011;59166;48.908;1.870;2023-08-20T04:44:35;9.27;;;2.03;;
71360;SDS011;59166;48.908;1.870;2023-08-20T04:49:36;9.63;;;2.00;;
71360;SDS011;59166;48.908;1.870;2023-08-20T04:54:37;7.10;;;2.00;;
71360;SDS011;59166;48.908;1.870;2023-08-20T04:59:39;10.17;;;2.37;;
71360;SDS011;59166;48.908;1.870;2023-08-20T05:04:39;11.20;;;2.30;;
71360;SDS011;59166;48.908;1.870;2023-08-20T05:09:40;8.60;;;2.20;;
71360;SDS011;59166;48.908;1.870;2023-08-20T05:14:42;8.13;;;2.00;;
71360;SDS011;59166;48.908;1.870;2023-08-20T05:19:42;12.13;;;2.43;;
71360;SDS011;59166;48.908;1.870;2023-08-20T05:24:43;7.03;;;2.00;;
71360;SDS011;59166;48.908;1.870;2023-08-20T05:29:45;8.23;;;2.27;;
71360;SDS011;59166;48.908;1.870;2023-08-20T05:34:46;9.13;;;2.17;;
71360;SDS011;59166;48.908;1.870;2023-08-20T05:39:46;7.30;;;2.13;;
71360;SDS011;59166;48.908;1.870;2023-08-20T05:44:48;8.50;;;2.10;;
71360;SDS011;59166;48.908;1.870;2023-08-20T05:49:49;10.07;;;2.03;;
71360;SDS011;59166;48.908;1.870;2023-08-20T05:54:50;9.63;;;2.30;;
71360;SDS011;59166;48.908;1.870;2023-08-20T05:59:52;6.87;;;2.10;;
71360;SDS011;59166;48.908;1.870;2023-08-20T06:04:52;9.00;;;2.13;;
71360;SDS011;59166;48.908;1.870;2023-08-20T06:09:53;10.30;;;2.00;;
71360;SDS011;59166;48.908;1.870;2023-08-20T06:14:55;9.98;;;2.00;;
71360;SDS011;59166;48.908;1.870;2023-08-20T06:19:56;8.93;;;2.20;;
71360;SDS011;59166;48.908;1.870;2023-08-20T06:24:56;8.57;;;2.40;;
71360;SDS011;59166;48.908;1.870;2023-08-20T06:29:58;9.13;;;2.20;;
71360;SDS011;59166;48.908;1.870;2023-08-20T06:34:59;12.38;;;2.60;;
71360;SDS011;59166;48.908;1.870;2023-08-20T06:40:00;10.00;;;2.17;;
71360;SDS011;59166;48.908;1.870;2023-08-20T06:45:02;11.45;;;2.00;;
71360;SDS011;59166;48.908;1.870;2023-08-20T06:50:04;8.00;;;1.90;;
71360;SDS011;59166;48.908;1.870;2023-08-20T06:55:05;8.73;;;2.13;;
71360;SDS011;59166;48.908;1.870;2023-08-20T07:00:08;8.25;;;2.00;;
71360;SDS011;59166;48.908;1.870;2023-08-20T07:05:09;11.53;;;2.17;;
71360;SDS011;59166;48.908;1.870;2023-08-20T07:10:09;6.03;;;2.10;;
71360;SDS011;59166;48.908;1.870;2023-08-20T07:15:11;6.33;;;1.90;;
71360;SDS011;59166;48.908;1.870;2023-08-20T07:20:12;9.93;;;2.40;;
71360;SDS011;59166;48.908;1.870;2023-08-20T07:25:13;8.60;;;2.40;;
71360;SDS011;59166;48.908;1.870;2023-08-20T07:30:15;9.23;;;2.30;;
71360;SDS011;59166;48.908;1.870;2023-08-20T07:35:15;8.77;;;2.28;;
71360;SDS011;59166;48.908;1.870;2023-08-20T07:40:16;8.27;;;2.13;;
71360;SDS011;59166;48.908;1.870;2023-08-20T07:45:18;8.93;;;2.40;;
71360;SDS011;59166;48.908;1.870;2023-08-20T07:50:19;8.55;;;2.47;;
71360;SDS011;59166;48.908;1.870;2023-08-20T07:55:19;9.23;;;2.53;;
71360;SDS011;59166;48.908;1.870;2023-08-20T08:00:21;11.03;;;2.53;;
71360;SDS011;59166;48.908;1.870;2023-08-20T08:05:22;10.15;;;3.00;;
71360;SDS011;59166;48.908;1.870;2023-08-20T08:10:23;9.53;;;2.70;;
71360;SDS011;59166;48.908;1.870;2023-08-20T08:15:25;10.23;;;2.57;;
71360;SDS011;59166;48.908;1.870;2023-08-20T08:20:25;7.50;;;2.50;;
71360;SDS011;59166;48.908;1.870;2023-08-20T08:25:26;9.47;;;2.80;;
71360;SDS011;59166;48.908;1.870;2023-08-20T08:30:28;10.60;;;3.30;;
71360;SDS011;59166;48.908;1.870;2023-08-20T08:35:28;9.50;;;3.10;;
71360;SDS011;59166;48.908;1.870;2023-08-20T08:40:34;12.20;;;3.47;;
71360;SDS011;59166;48.908;1.870;2023-08-20T08:45:36;9.05;;;3.08;;
71360;SDS011;59166;48.908;1.870;2023-08-20T08:50:37;9.33;;;3.50;;
71360;SDS011;59166;48.908;1.870;2023-08-20T08:55:37;10.32;;;3.17;;
71360;SDS011;59166;48.908;1.870;2023-08-20T09:00:40;8.20;;;3.20;;
71360;SDS011;59166;48.908;1.870;2023-08-20T09:05:46;9.23;;;3.10;;
71360;SDS011;59166;48.908;1.870;2023-08-20T09:10:49;7.03;;;2.90;;
71360;SDS011;59166;48.908;1.870;2023-08-20T09:15:52;8.38;;;2.88;;
71360;SDS011;59166;48.908;1.870;2023-08-20T09:20:53;9.73;;;2.80;;
71360;SDS011;59166;48.908;1.870;2023-08-20T09:25:53;9.17;;;2.90;;
71360;SDS011;59166;48.908;1.870;2023-08-20T09:30:56;8.97;;;2.90;;
71360;SDS011;59166;48.908;1.870;2023-08-20T09:35:57;7.20;;;2.70;;
71360;SDS011;59166;48.908;1.870;2023-08-20T09:40:58;7.67;;;2.60;;
71360;SDS011;59166;48.908;1.870;2023-08-20T09:46:00;7.95;;;2.80;;
71360;SDS011;59166;48.908;1.870;2023-08-20T09:51:04;8.77;;;2.53;;
71360;SDS011;59166;48.908;1.870;2023-08-20T09:56:10;8.00;;;2.65;;
71360;SDS011;59166;48.908;1.870;2023-08-20T10:01:18;8.25;;;2.13;;
71360;SDS011;59166;48.908;1.870;2023-08-20T10:06:18;8.27;;;2.67;;
71360;SDS011;59166;48.908;1.870;2023-08-20T10:11:20;6.20;;;2.28;;
71360;SDS011;59166;48.908;1.870;2023-08-20T10:16:22;7.22;;;2.00;;
71360;SDS011;59166;48.908;1.870;2023-08-20T10:21:24;7.33;;;2.17;;
71360;SDS011;59166;48.908;1.870;2023-08-20T10:26:24;7.25;;;2.53;;
71360;SDS011;59166;48.908;1.870;2023-08-20T10:31:26;6.63;;;2.20;;
71360;SDS011;59166;48.908;1.870;2023-08-20T10:36:27;6.93;;;1.95;;
71360;SDS011;59166;48.908;1.870;2023-08-20T10:41:28;7.77;;;1.83;;
71360;SDS011;59166;48.908;1.870;2023-08-20T10:46:30;7.00;;;1.60;;
71360;SDS011;59166;48.908;1.870;2023-08-20T10:51:32;6.87;;;1.73;;
71360;SDS011;59166;48.908;1.870;2023-08-20T10:56:40;6.05;;;2.00;;
71360;SDS011;59166;48.908;1.870;2023-08-20T11:01:44;7.22;;;1.90;;
71360;SDS011;59166;48.908;1.870;2023-08-20T11:06:46;6.90;;;1.90;;
71360;SDS011;59166;48.908;1.870;2023-08-20T11:11:49;7.38;;;1.90;;
71360;SDS011;59166;48.908;1.870;2023-08-20T11:16:52;5.68;;;1.77;;
71360;SDS011;59166;48.908;1.870;2023-08-20T11:21:52;8.35;;;1.98;;
71360;SDS011;59166;48.908;1.870;2023-08-20T11:26:54;5.90;;;1.70;;
71360;SDS011;59166;48.908;1.870;2023-08-20T11:31:56;5.32;;;1.70;;
71360;SDS011;59166;48.908;1.870;2023-08-20T11:36:58;6.67;;;1.60;;
71360;SDS011;59166;48.908;1.870;2023-08-20T11:41:59;5.55;;;1.90;;
71360;SDS011;59166;48.908;1.870;2023-08-20T11:47:01;6.10;;;1.60;;
71360;SDS011;59166;48.908;1.870;2023-08-20T11:52:01;6.20;;;1.70;;
71360;SDS011;59166;48.908;1.870;2023-08-20T11:57:02;4.87;;;1.47;;
71360;SDS011;59166;48.908;1.870;2023-08-20T12:02:05;5.90;;;1.60;;
71360;SDS011;59166;48.908;1.870;2023-08-20T12:07:08;4.53;;;1.70;;
71360;SDS011;59166;48.908;1.870;2023-08-20T12:12:09;7.00;;;1.58;;
71360;SDS011;59166;48.908;1.870;2023-08-20T12:17:11;5.13;;;1.60;;
71360;SDS011;59166;48.908;1.870;2023-08-20T12:22:12;5.10;;;1.40;;
71360;SDS011;59166;48.908;1.870;2023-08-20T12:27:12;4.03;;;1.47;;
71360;SDS011;59166;48.908;1.870;2023-08-20T12:32:14;4.50;;;1.50;;
71360;SDS011;59166;48.908;1.870;2023-08-20T12:37:15;3.93;;;1.40;;
71360;SDS011;59166;48.908;1.870;2023-08-20T12:42:15;5.07;;;1.40;;
71360;SDS011;59166;48.908;1.870;2023-08-20T12:47:17;4.70;;;1.37;;
71360;SDS011;59166;48.908;1.870;2023-08-20T12:52:18;5.88;;;1.50;;
71360;SDS011;59166;48.908;1.870;2023-08-20T12:57:19;6.47;;;1.43;;
71360;SDS011;59166;48.908;1.870;2023-08-20T13:02:21;6.30;;;1.57;;
71360;SDS011;59166;48.908;1.870;2023-08-20T13:07:22;3.88;;;1.40;;
71360;SDS011;59166;48.908;1.870;2023-08-20T13:12:23;5.22;;;1.30;;
71360;SDS011;59166;48.908;1.870;2023-08-20T13:17:28;4.67;;;1.40;;
71360;SDS011;59166;48.908;1.870;2023-08-20T13:22:30;5.10;;;1.40;;
71360;SDS011;59166;48.908;1.870;2023-08-20T13:27:31;6.80;;;1.40;;
71360;SDS011;59166;48.908;1.870;2023-08-20T13:32:33;3.73;;;1.23;;
71360;SDS011;59166;48.908;1.870;2023-08-20T13:37:33;5.35;;;1.50;;
71360;SDS011;59166;48.908;1.870;2023-08-20T13:42:34;6.80;;;1.90;;
71360;SDS011;59166;48.908;1.870;2023-08-20T13:47:36;4.28;;;1.40;;
71360;SDS011;59166;48.908;1.870;2023-08-20T13:52:37;5.43;;;1.30;;
71360;SDS011;59166;48.908;1.870;2023-08-20T13:57:37;4.65;;;1.25;;
71360;SDS011;59166;48.908;1.870;2023-08-20T14:02:39;4.03;;;1.10;;
71360;SDS011;59166;48.908;1.870;2023-08-20T14:07:40;3.75;;;1.10;;
71360;SDS011;59166;48.908;1.870;2023-08-20T14:12:40;3.77;;;1.10;;
71360;SDS011;59166;48.908;1.870;2023-08-20T14:17:43;3.90;;;1.10;;
71360;SDS011;59166;48.908;1.870;2023-08-20T14:22:43;4.72;;;1.20;;
71360;SDS011;59166;48.908;1.870;2023-08-20T14:27:44;4.10;;;1.17;;
71360;SDS011;59166;48.908;1.870;2023-08-20T14:32:46;5.13;;;1.10;;
71360;SDS011;59166;48.908;1.870;2023-08-20T14:37:46;21.17;;;1.70;;
71360;SDS011;59166;48.908;1.870;2023-08-20T14:42:47;3.38;;;1.00;;
71360;SDS011;59166;48.908;1.870;2023-08-20T14:47:49;3.67;;;1.00;;
71360;SDS011;59166;48.908;1.870;2023-08-20T14:52:49;4.55;;;1.08;;
71360;SDS011;59166;48.908;1.870;2023-08-20T14:57:50;4.13;;;1.10;;
71360;SDS011;59166;48.908;1.870;2023-08-20T15:02:52;5.47;;;1.10;;
71360;SDS011;59166;48.908;1.870;2023-08-20T15:07:53;2.38;;;1.00;;
71360;SDS011;59166;48.908;1.870;2023-08-20T15:12:53;2.33;;;1.00;;
71360;SDS011;59166;48.908;1.870;2023-08-20T15:17:55;2.27;;;0.90;;
71360;SDS011;59166;48.908;1.870;2023-08-20T15:22:56;2.53;;;1.10;;
71360;SDS011;59166;48.908;1.870;2023-08-20T15:27:56;4.60;;;1.10;;
71360;SDS011;59166;48.908;1.870;2023-08-20T15:32:58;3.57;;;1.07;;
71360;SDS011;59166;48.908;1.870;2023-08-20T15:37:59;3.25;;;1.00;;
71360;SDS011;59166;48.908;1.870;2023-08-20T15:43:00;3.87;;;1.10;;
71360;SDS011;59166;48.908;1.870;2023-08-20T15:48:02;3.53;;;1.10;;
71360;SDS011;59166;48.908;1.870;2023-08-20T15:53:03;2.58;;;0.93;;
71360;SDS011;59166;48.908;1.870;2023-08-20T15:58:03;3.40;;;1.00;;
71360;SDS011;59166;48.908;1.870;2023-08-20T16:03:06;3.60;;;1.00;;
71360;SDS011;59166;48.908;1.870;2023-08-20T16:08:06;3.23;;;1.10;;
71360;SDS011;59166;48.908;1.870;2023-08-20T16:13:07;3.03;;;1.00;;
71360;SDS011;59166;48.908;1.870;2023-08-20T16:18:09;4.70;;;0.90;;
71360;SDS011;59166;48.908;1.870;2023-08-20T16:23:09;3.15;;;1.10;;
71360;SDS011;59166;48.908;1.870;2023-08-20T16:28:10;3.00;;;0.90;;
71360;SDS011;59166;48.908;1.870;2023-08-20T16:33:12;3.23;;;0.90;;
71360;SDS011;59166;48.908;1.870;2023-08-20T16:38:13;4.22;;;1.10;;
71360;SDS011;59166;48.908;1.870;2023-08-20T16:43:13;2.60;;;0.90;;
71360;SDS011;59166;48.908;1.870;2023-08-20T16:48:15;4.65;;;0.95;;
71360;SDS011;59166;48.908;1.870;2023-08-20T16:53:16;2.03;;;0.90;;
71360;SDS011;59166;48.908;1.870;2023-08-20T16:58:17;3.30;;;1.10;;
71360;SDS011;59166;48.908;1.870;2023-08-20T17:03:19;3.30;;;1.00;;
71360;SDS011;59166;48.908;1.870;2023-08-20T17:08:20;3.30;;;0.93;;
71360;SDS011;59166;48.908;1.870;2023-08-20T17:13:20;2.63;;;0.90;;
71360;SDS011;59166;48.908;1.870;2023-08-20T17:18:22;2.70;;;0.90;;
71360;SDS011;59166;48.908;1.870;2023-08-20T17:23:23;3.13;;;0.90;;
71360;SDS011;59166;48.908;1.870;2023-08-20T17:28:24;3.15;;;1.00;;
71360;SDS011;59166;48.908;1.870;2023-08-20T17:33:26;5.60;;;1.00;;
71360;SDS011;59166;48.908;1.870;2023-08-20T17:38:27;5.93;;;1.00;;
71360;SDS011;59166;48.908;1.870;2023-08-20T17:43:27;4.40;;;1.10;;
71360;SDS011;59166;48.908;1.870;2023-08-20T17:48:29;4.47;;;1.10;;
71360;SDS011;59166;48.908;1.870;2023-08-20T17:53:30;6.15;;;1.20;;
71360;SDS011;59166;48.908;1.870;2023-08-20T17:58:30;4.20;;;1.20;;
71360;SDS011;59166;48.908;1.870;2023-08-20T18:03:33;5.57;;;1.20;;
71360;SDS011;59166;48.908;1.870;2023-08-20T18:08:33;3.85;;;1.10;;
71360;SDS011;59166;48.908;1.870;2023-08-20T18:13:34;7.03;;;1.33;;
71360;SDS011;59166;48.908;1.870;2023-08-20T18:18:36;4.87;;;1.37;;
71360;SDS011;59166;48.908;1.870;2023-08-20T18:23:37;6.53;;;1.70;;
71360;SDS011;59166;48.908;1.870;2023-08-20T18:28:37;6.97;;;1.80;;
71360;SDS011;59166;48.908;1.870;2023-08-20T18:33:39;7.53;;;1.80;;
71360;SDS011;59166;48.908;1.870;2023-08-20T18:38:40;7.45;;;1.90;;
71360;SDS011;59166;48.908;1.870;2023-08-20T18:43:41;7.03;;;1.70;;
71360;SDS011;59166;48.908;1.870;2023-08-20T18:48:43;7.33;;;1.90;;
71360;SDS011;59166;48.908;1.870;2023-08-20T18:53:43;7.67;;;1.90;;
71360;SDS011;59166;48.908;1.870;2023-08-20T18:58:44;6.33;;;1.97;;
71360;SDS011;59166;48.908;1.870;2023-08-20T19:03:46;6.17;;;2.00;;
71360;SDS011;59166;48.908;1.870;2023-08-20T19:08:47;7.55;;;1.88;;
71360;SDS011;59166;48.908;1.870;2023-08-20T19:13:47;7.40;;;1.90;;
71360;SDS011;59166;48.908;1.870;2023-08-20T19:18:49;7.97;;;1.70;;
71360;SDS011;59166;48.908;1.870;2023-08-20T19:23:50;7.03;;;1.77;;
71360;SDS011;59166;48.908;1.870;2023-08-20T19:28:50;6.50;;;1.60;;
71360;SDS011;59166;48.908;1.870;2023-08-20T19:33:52;6.75;;;1.52;;
71360;SDS011;59166;48.908;1.870;2023-08-20T19:38:53;10.50;;;1.80;;
71360;SDS011;59166;48.908;1.870;2023-08-20T19:43:53;5.80;;;1.40;;
71360;SDS011;59166;48.908;1.870;2023-08-20T19:48:56;8.80;;;1.60;;
71360;SDS011;59166;48.908;1.870;2023-08-20T19:53:56;6.03;;;1.40;;
71360;SDS011;59166;48.908;1.870;2023-08-20T19:58:57;8.27;;;1.65;;
71360;SDS011;59166;48.908;1.870;2023-08-20T20:03:59;7.20;;;1.70;;
71360;SDS011;59166;48.908;1.870;2023-08-20T20:09:00;8.73;;;1.75;;
71360;SDS011;59166;48.908;1.870;2023-08-20T20:14:00;8.67;;;1.60;;
71360;SDS011;59166;48.908;1.870;2023-08-20T20:19:02;6.87;;;1.50;;
71360;SDS011;59166;48.908;1.870;2023-08-20T20:24:03;7.53;;;1.30;;
71360;SDS011;59166;48.908;1.870;2023-08-20T20:29:04;5.18;;;1.40;;
71360;SDS011;59166;48.908;1.870;2023-08-20T20:34:07;6.43;;;1.37;;
71360;SDS011;59166;48.908;1.870;2023-08-20T20:39:07;8.23;;;1.77;;
71360;SDS011;59166;48.908;1.870;2023-08-20T20:44:08;5.30;;;1.50;;
71360;SDS011;59166;48.908;1.870;2023-08-20T20:49:10;6.65;;;1.80;;
71360;SDS011;59166;48.908;1.870;2023-08-20T20:54:11;7.73;;;1.50;;
71360;SDS011;59166;48.908;1.870;2023-08-20T20:59:12;8.95;;;1.70;;
71360;SDS011;59166;48.908;1.870;2023-08-20T21:04:14;6.67;;;2.13;;
71360;SDS011;59166;48.908;1.870;2023-08-20T21:09:15;6.88;;;1.85;;
71360;SDS011;59166;48.908;1.870;2023-08-20T21:14:15;7.93;;;1.60;;
71360;SDS011;59166;48.908;1.870;2023-08-20T21:19:17;8.25;;;1.90;;
71360;SDS011;59166;48.908;1.870;2023-08-20T21:24:18;9.03;;;1.87;;
71360;SDS011;59166;48.908;1.870;2023-08-20T21:29:18;5.57;;;1.60;;
71360;SDS011;59166;48.908;1.870;2023-08-20T21:34:20;5.27;;;1.43;;
71360;SDS011;59166;48.908;1.870;2023-08-20T21:39:21;5.37;;;1.60;;
71360;SDS011;59166;48.908;1.870;2023-08-20T21:44:22;7.03;;;1.43;;
71360;SDS011;59166;48.908;1.870;2023-08-20T21:49:24;7.97;;;1.60;;
71360;SDS011;59166;48.908;1.870;2023-08-20T21:54:24;7.00;;;1.52;;
71360;SDS011;59166;48.908;1.870;2023-08-20T21:59:25;6.93;;;1.50;;
71360;SDS011;59166;48.908;1.870;2023-08-20T22:04:30;7.83;;;1.70;;
71360;SDS011;59166;48.908;1.870;2023-08-20T22:09:31;7.22;;;1.45;;
71360;SDS011;59166;48.908;1.870;2023-08-20T22:14:32;6.90;;;1.80;;
71360;SDS011;59166;48.908;1.870;2023-08-20T22:19:34;7.05;;;1.65;;
71360;SDS011;59166;48.908;1.870;2023-08-20T22:24:35;7.38;;;1.60;;
71360;SDS011;59166;48.908;1.870;2023-08-20T22:29:35;8.23;;;1.60;;
71360;SDS011;59166;48.908;1.870;2023-08-20T22:34:37;6.40;;;1.53;;
71360;SDS011;59166;48.908;1.870;2023-08-20T22:39:38;6.68;;;1.63;;
71360;SDS011;59166;48.908;1.870;2023-08-20T22:44:39;8.60;;;1.60;;
71360;SDS011;59166;48.908;1.870;2023-08-20T22:49:41;10.30;;;1.50;;
71360;SDS011;59166;48.908;1.870;2023-08-20T22:54:41;5.40;;;1.50;;
71360;SDS011;59166;48.908;1.870;2023-08-20T22:59:42;7.17;;;1.80;;
71360;SDS011;59166;48.908;1.870;2023-08-20T23:04:44;7.00;;;1.60;;
71360;SDS011;59166;48.908;1.870;2023-08-20T23:09:44;6.40;;;1.50;;
71360;SDS011;59166;48.908;1.870;2023-08-20T23:14:45;8.97;;;1.70;;
71360;SDS011;59166;48.908;1.870;2023-08-20T23:19:48;6.40;;;1.50;;
71360;SDS011;59166;48.908;1.870;2023-08-20T23:24:48;8.35;;;1.55;;
71360;SDS011;59166;48.908;1.870;2023-08-20T23:29:49;7.10;;;1.50;;
71360;SDS011;59166;48.908;1.870;2023-08-20T23:34:51;9.70;;;1.80;;
71360;SDS011;59166;48.908;1.870;2023-08-20T23:39:52;7.40;;;1.67;;
71360;SDS011;59166;48.908;1.870;2023-08-20T23:44:52;7.60;;;1.47;;
71360;SDS011;59166;48.908;1.870;2023-08-20T23:49:54;7.80;;;1.80;;
71360;SDS011;59166;48.908;1.870;2023-08-20T23:54:55;8.23;;;1.67;;
71360;SDS011;59166;48.908;1.870;2023-08-20T23:59:55;7.23;;;1.40;;
